• Join FlightAware (Why Join?)
  • Login
  • US Flag 
08:20AM EST


 

Airport Tracker/Info


-or-


 

Live Flight TrackerFlight Track Log ✈ N137TK ✈ 07-May-2013 ✈ KAPF - KAVL

Flight Track Log - Related Links

Times and Time Zones

All times are in EDT time to prevent confusion due to time zone crossing. See the N137TK flight status page for this flight to view local times or setup timezone preferences in your user account.

Time Position Orientation Groundspeed Altitude Reporting Facility
EDT Latitude Longitude Course Direction KTS MPH feet Rate Location/Type
06:16AM 26.2700 -81.8119 354° North 172 198 4,700  Level Miami Center
06:17AM 26.3158 -81.8114 North 177 204 6,600 1,800 Climbing Miami Center
06:18AM 26.3619 -81.8111 360° North 177 204 8,300 1,500 Climbing Miami Center
06:19AM 26.4183 -81.8067 North 183 211 9,600 1,620 Climbing Miami Center
06:20AM 26.5674 -81.8167 354° North  Level FlightAware Approximate
06:20AM 26.4625 -81.7992 North 178 205 11,600  Level Miami Center
06:21AM 26.6371 -81.8245 354° North  Level FlightAware Approximate
06:21AM 26.5192 -81.7875 10° North 183 211 13,100  Level Miami Center
06:22AM 26.7069 -81.8322 354° North  Level FlightAware Approximate
06:22AM 26.5803 -81.7739 11° North 188 216 14,900  Level Miami Center
06:23AM 26.6350 -81.7644 North 193 222 16,400 1,380 Climbing Miami Center
06:24AM 26.6894 -81.7528 11° North 199 229 17,700 1,200 Climbing Miami Center
06:25AM 26.7486 -81.7367 14° North 204 235 18,800 1,140 Climbing Miami Center
06:26AM 26.8031 -81.7275 North 204 235 20,000 1,140 Climbing Miami Center
06:27AM 26.8578 -81.7133 13° North 204 235 21,100 1,140 Climbing Miami Center
06:28AM 26.9147 -81.7017 10° North 204 235 22,300 1,140 Climbing Miami Center
06:29AM 26.9689 -81.6994 North 199 229 23,400 960 Climbing Miami Center
06:30AM 27.0214 -81.6947 North 193 222 24,300 780 Climbing Miami Center
06:31AM 27.0756 -81.6922 North 193 222 25,000 300 Climbing Miami Center
06:32AM 27.1322 -81.6875 North 211 243 25,000  Level Miami Center
06:33AM 27.2011 -81.6858 North 235 270 25,000  Level Miami Center
06:34AM 27.2828 -81.6822 North 261 300 25,000  Level Miami Center
06:35AM 27.3581 -81.6783 North 266 306 25,000  Level Miami Center
06:36AM 27.4333 -81.6719 North 275 316 25,000  Level Miami Center
06:37AM 27.5022 -81.6703 North 270 311 25,000  Level Miami Center
06:38AM 27.5794 -81.6664 North 276 318 25,000  Level Miami Center
06:39AM 27.6653 -81.6608 North 276 318 25,000  Level Miami Center
06:40AM 27.7447 -81.6569 North 276 318 25,000  Level Miami Center
06:41AM 27.8200 -81.6531 North 276 318 25,000  Level Miami Center
06:42AM 27.8972 -81.6494 North 276 318 25,000  Level Miami Center
06:43AM 27.9725 -81.6456 North 271 312 25,000  Level Miami Center
06:45AM 28.1103 -81.6361 North 276 318 25,000  Level Jacksonville Center
06:46AM 28.1875 -81.6303 North 276 318 25,000  Level Jacksonville Center
06:47AM 28.2647 -81.6269 North 271 312 25,000  Level Jacksonville Center
06:48AM 28.3419 -81.6214 North 271 312 25,000  Level Jacksonville Center
06:49AM 28.4211 -81.6203 North 271 312 25,000  Level Jacksonville Center
06:50AM 28.4983 -81.6169 North 271 312 25,000  Level Jacksonville Center
06:51AM 28.5775 -81.6114 North 271 312 25,000  Level Jacksonville Center
06:52AM 28.6547 -81.6056 North 271 312 25,000  Level Jacksonville Center
06:53AM 28.7319 -81.6022 North 271 312 25,000  Level Jacksonville Center
06:54AM 28.8111 -81.5989 North 271 312 25,000  Level Jacksonville Center
06:55AM 28.8883 -81.5953 North 271 312 25,000  Level Jacksonville Center
06:56AM 28.9656 -81.6017 356° North 271 312 25,000  Level Jacksonville Center
06:57AM 29.0408 -81.6100 354° North 271 312 25,000  Level Jacksonville Center
06:58AM 29.1161 -81.6186 354° North 271 312 25,000  Level Jacksonville Center
06:59AM 29.1894 -81.6294 353° North 271 312 25,000  Level Jacksonville Center
07:00AM 29.2603 -81.6428 351° North 271 312 25,000  Level Jacksonville Center
07:01AM 29.3356 -81.6514 354° North 271 312 25,000  Level Jacksonville Center
07:02AM 29.4108 -81.6625 353° North 276 318 25,000  Level Jacksonville Center
07:03AM 29.4861 -81.6711 354° North 276 318 25,000  Level Jacksonville Center
07:04AM 29.5614 -81.6819 353° North 276 318 25,000  Level Jacksonville Center
07:05AM 29.6386 -81.6931 353° North 276 318 25,000  Level Jacksonville Center
07:06AM 29.7119 -81.7017 354° North 276 318 25,000  Level Jacksonville Center
07:07AM 29.7872 -81.7128 353° North 276 318 25,000  Level Jacksonville Center
07:08AM 29.8644 -81.7239 353° North 276 318 25,000  Level Jacksonville Center
07:09AM 29.9375 -81.7325 354° North 276 318 25,000  Level Jacksonville Center
07:10AM 30.0211 -81.7411 355° North 276 318 25,000  Level Jacksonville Center
07:11AM 30.0986 -81.7522 353° North 276 318 25,000  Level Jacksonville Center
07:12AM 30.1739 -81.7608 354° North 276 318 25,000  Level Jacksonville Center
07:13AM 30.2492 -81.7719 353° North 276 318 25,000  Level Jacksonville Center
07:14AM 30.3222 -81.7833 352° North 276 318 25,000  Level Jacksonville Center
07:15AM 30.3975 -81.7919 354° North 276 318 25,000  Level Jacksonville Center
07:16AM 30.4728 -81.8031 353° North 276 318 25,000  Level Jacksonville Center
07:17AM 30.5481 -81.8144 353° North 271 312 25,000  Level Jacksonville Center
07:18AM 30.6275 -81.8303 350° North 278 320 25,000  Level Jacksonville Center
07:19AM 30.7006 -81.8417 352° North 278 320 25,000  Level Jacksonville Center
07:20AM 30.7717 -81.8506 354° North 272 313 25,000  Level Jacksonville Center
07:21AM 30.8450 -81.8617 353° North 267 307 25,000  Level Jacksonville Center
07:22AM 30.9200 -81.8706 354° North 267 307 25,000  Level Jacksonville Center
07:23AM 30.9911 -81.8819 352° North 267 307 25,000  Level Jacksonville Center
07:24AM 31.0644 -81.8933 352° North 267 307 25,000  Level Jacksonville Center
07:25AM 31.1397 -81.9047 353° North 262 302 25,000  Level Jacksonville Center
07:26AM 31.2147 -81.9136 354° North 262 302 25,000  Level Jacksonville Center
07:27AM 31.2858 -81.9250 352° North 262 302 25,000  Level Jacksonville Center
07:28AM 31.3592 -81.9317 356° North 257 296 25,000  Level Jacksonville Center
07:29AM 31.4342 -81.9406 354° North 257 296 25,000  Level Jacksonville Center
07:30AM 31.4969 -81.9497 353° North 257 296 25,000  Level Jacksonville Center
07:31AM 31.5786 -81.9633 352° North 257 296 25,000  Level Jacksonville Center
07:32AM 31.6433 -81.9725 353° North 257 296 25,000  Level Jacksonville Center
07:33AM 31.7206 -81.9839 353° North 257 296 25,000  Level Jacksonville Center
07:34AM 31.7939 -81.9956 352° North 257 296 25,000  Level Jacksonville Center
07:35AM 31.8564 -82.0022 355° North 257 296 25,000  Level Jacksonville Center
07:36AM 31.9358 -82.0136 353° North 257 296 25,000  Level Jacksonville Center
07:38AM 32.0978 -82.0406 352° North 269 310 25,000  Level Atlanta Center
07:39AM 32.1731 -82.0514 353° North 270 311 25,000  Level Atlanta Center
07:40AM 32.2378 -82.0597 354° North 270 311 25,000  Level Atlanta Center
07:41AM 32.3194 -82.0678 355° North 264 304 25,000  Level Atlanta Center
07:42AM 32.3947 -82.0831 350° North 264 304 25,000  Level Atlanta Center
07:43AM 32.4700 -82.0939 353° North 269 310 25,000  Level Atlanta Center
07:44AM 32.5475 -82.1019 355° North 274 315 25,000  Level Atlanta Center
07:45AM 32.6250 -82.1150 352° North 274 315 25,000  Level Atlanta Center
07:46AM 32.7003 -82.1258 353° North 274 315 25,000  Level Atlanta Center
07:47AM 32.7756 -82.1389 352° North 274 315 25,000  Level Atlanta Center
07:48AM 32.8592 -82.1519 353° North 279 321 25,000  Level Atlanta Center
07:49AM 32.9344 -82.1628 353° North 279 321 25,000  Level Atlanta Center
07:50AM 33.0119 -82.1736 353° North 279 321 25,000  Level Atlanta Center
07:51AM 33.0894 -82.1817 355° North 279 321 25,000  Level Atlanta Center
07:52AM 33.1667 -82.1950 352° North 279 321 25,000  Level Atlanta Center
07:53AM 33.2400 -82.2083 351° North 279 321 25,000  Level Atlanta Center
07:54AM 33.3194 -82.2192 353° North 279 321 25,000 -300 Level Atlanta Center
07:55AM 33.3947 -82.2300 353° North 279 321 24,500 -480 Descending Atlanta Center
07:56AM 33.4742 -82.2408 354° North 279 321 24,100 -300 Descending Atlanta Center
07:57AM 33.5536 -82.2517 354° North 279 321 24,000 -60 Descending Atlanta Center
07:58AM 33.6311 -82.2650 352° North 279 321 24,000  Level Atlanta Center
07:59AM 33.7064 -82.2758 353° North 279 321 24,000  Level Atlanta Center
08:00AM 33.7900 -82.2892 352° North 279 321 24,000  Level Atlanta Center
08:01AM 33.8633 -82.3000 353° North 275 316 24,000  Level Atlanta Center
08:02AM 33.9386 -82.3111 353° North 275 316 24,000 -600 Level Atlanta Center
08:03AM 34.0161 -82.3247 352° North 275 316 22,900 -960 Descending Atlanta Center
08:04AM 34.0956 -82.3356 354° North 298 343 22,100 -900 Descending Atlanta Center
08:05AM 34.1769 -82.3464 354° North 298 343 21,200 -1,080 Descending Atlanta Center
08:06AM 34.2628 -82.3597 353° North 298 343 20,000 -1,200 Descending Atlanta Center
08:07AM 34.3464 -82.3758 351° North 298 343 18,800 -1,200 Descending Atlanta Center
08:08AM 34.4258 -82.3842 355° North 293 337 17,600 -1,200 Descending Atlanta Center
08:09AM 34.5117 -82.3978 353° North 293 337 16,400 -1,200 Descending Atlanta Center
08:10AM 34.5892 -82.4114 352° North 293 337 15,300 -1,200 Descending Atlanta Center
08:11AM 34.6686 -82.4200 355° North 293 337 14,100 -1,200 Descending Atlanta Center
08:12AM 34.7458 -82.4233 358° North 288 331 12,900 -1,380 Descending Atlanta Center
08:13AM 34.8336 -82.4344 354° North 288 331 11,400 -1,380 Descending Atlanta Center
08:14AM 34.9108 -82.4406 356° North 283 326 10,200 -1,200 Descending Atlanta Center
08:15AM 34.9903 -82.4442 358° North 283 326 9,000 -1,200 Descending Atlanta Center
08:16AM 35.0675 -82.4553 353° North 278 320 7,800 -1,200 Descending Atlanta Center
08:17AM 35.1406 -82.4589 358° North 270 311 6,600 -1,080 Descending Atlanta Center
08:18AM 35.1867 -82.4656 353° North 242 278 5,700 -780 Descending Atlanta Center
08:19AM 35.2194 -82.4294 42° Northeast 216 249 5,100 9,120 Descending Atlanta Center
08:20AM 35.2822 -82.4358 355° North 216 249 24,000 18,900 Climbing Atlanta Center
08:22AM 35.3571 -82.4873 North  Level Estimated
08:29AM 35.4333 -82.5333 348° North  Level FlightAware Approximate
08:30AM 35.4362 -82.5418 348° North  Level Estimated